Matlacha, Florida
Current Conditions -  °F | °C
As of 8:53 AM on Saturday 20 Dec 2014 (Local Time) from KFMY Reporting Station
Clear Clear  
Wind Chill: 63°   Ceiling: Unl
Heat Index: 63°   Visibility: 10mi
Dew Point: 57°   Wind: 5mph
Humidity: 81%   Direction: 90°E
Pressure: 30.1"   Gusts: NA
Location:  26.6904°N, 82.0304°W
Report Text: KFMY 201353Z 09004KT 10SM CLR 17/14 A3010 RMK AO2 SLP195 T01720139
Loading
Personal Weather Stations






























Interactive Weather Map New forecast layout! Learn more

10-Day Weather Forecast

Advertisements
Track Severe Weather on mobile